createdAt,value
2019-01-29T00:01:14.182Z,1.20
2019-01-29T00:03:43.482Z,1.30
2019-01-29T00:06:14.008Z,1.60
2019-01-29T00:08:43.147Z,1.50
2019-01-29T00:11:12.223Z,1.57
2019-01-29T00:13:43.405Z,1.20
2019-01-29T00:16:13.557Z,1.30
2019-01-29T00:18:42.743Z,1.40
2019-01-29T00:21:14.593Z,1.40
2019-01-29T00:23:43.698Z,1.17
2019-01-29T00:26:15.059Z,1.67
2019-01-29T00:28:45.107Z,1.30
2019-01-29T00:31:14.254Z,1.23
2019-01-29T00:33:43.965Z,0.97
2019-01-29T00:36:13.489Z,1.60
2019-01-29T00:38:42.630Z,1.20
2019-01-29T00:41:13.310Z,1.40
2019-01-29T00:43:42.428Z,2.10
2019-01-29T00:46:20.548Z,1.77
2019-01-29T00:48:50.661Z,1.70
2019-01-29T00:51:21.513Z,2.00
2019-01-29T00:53:50.688Z,2.10
2019-01-29T00:56:21.077Z,1.60
2019-01-29T00:58:50.188Z,1.90
2019-01-29T01:01:20.068Z,1.83
2019-01-29T01:03:49.226Z,1.93
2019-01-29T01:06:18.378Z,1.93
2019-01-29T01:08:47.736Z,1.80
2019-01-29T01:11:16.884Z,2.10
2019-01-29T01:13:46.346Z,1.73
2019-01-29T01:16:15.447Z,2.17
2019-01-29T01:18:44.582Z,1.77
2019-01-29T01:21:13.693Z,1.90
2019-01-29T01:23:46.360Z,2.17
2019-01-29T01:26:15.792Z,1.80
2019-01-29T01:28:45.171Z,1.90
2019-01-29T01:31:15.612Z,1.63
2019-01-29T01:33:44.743Z,1.87
2019-01-29T01:36:17.707Z,1.67
2019-01-29T01:38:46.819Z,2.03
2019-01-29T01:41:17.450Z,2.20
2019-01-29T01:43:48.509Z,2.17
2019-01-29T01:46:17.416Z,1.83
2019-01-29T01:48:47.319Z,1.70
2019-01-29T01:51:16.444Z,2.60
2019-01-29T01:53:48.558Z,2.33
2019-01-29T01:56:17.714Z,2.30
2019-01-29T01:58:46.823Z,2.23
2019-01-29T02:01:15.922Z,2.10
2019-01-29T02:03:45.096Z,2.47
2019-01-29T02:06:14.272Z,2.50
2019-01-29T02:08:44.204Z,2.60
2019-01-29T02:11:13.376Z,2.37
2019-01-29T02:13:43.050Z,2.50
2019-01-29T02:16:17.716Z,2.30
2019-01-29T02:18:46.864Z,3.00
2019-01-29T02:21:17.076Z,2.80
2019-01-29T02:23:46.190Z,3.27
2019-01-29T02:26:15.344Z,1.93
2019-01-29T02:28:44.465Z,2.60
2019-01-29T02:31:13.565Z,2.10
2019-01-29T02:33:46.011Z,2.33
2019-01-29T02:36:15.148Z,2.70
2019-01-29T02:38:44.795Z,2.73
2019-01-29T02:41:14.006Z,2.47
2019-01-29T02:43:43.640Z,2.67
2019-01-29T02:46:15.060Z,3.47
2019-01-29T02:48:44.193Z,3.07
2019-01-29T02:51:13.312Z,3.03
2019-01-29T02:53:42.435Z,2.50
2019-01-29T02:56:11.808Z,2.97
2019-01-29T02:58:41.479Z,3.00
2019-01-29T03:01:10.584Z,3.33
2019-01-29T03:03:39.710Z,2.37
2019-01-29T03:06:09.344Z,2.50
2019-01-29T03:08:38.716Z,1.90
2019-01-29T03:11:09.908Z,1.77
2019-01-29T03:13:39.300Z,2.63
2019-01-29T03:16:08.417Z,2.10
2019-01-29T03:18:37.596Z,2.20
2019-01-29T03:21:06.916Z,1.93
2019-01-29T03:23:36.334Z,3.97
2019-01-29T03:26:06.430Z,2.77
2019-01-29T03:28:55.724Z,3.10
2019-01-29T03:31:37.149Z,3.10
2019-01-29T03:34:06.519Z,3.07
2019-01-29T03:36:54.961Z,2.73
2019-01-29T03:39:35.866Z,3.00
2019-01-29T03:42:05.007Z,2.70
2019-01-29T03:44:53.369Z,2.77
2019-01-29T03:47:41.773Z,2.77
2019-01-29T03:50:23.285Z,2.63
2019-01-29T03:53:03.954Z,3.10
2019-01-29T03:55:45.309Z,2.90
2019-01-29T03:58:26.128Z,2.90
2019-01-29T04:01:07.342Z,2.47
2019-01-29T04:03:36.467Z,2.50
2019-01-29T04:06:24.757Z,3.30
2019-01-29T04:12:14.340Z,2.27
2019-01-29T04:14:55.344Z,2.87
2019-01-29T04:17:36.035Z,2.23
2019-01-29T04:22:58.460Z,2.10
2019-01-29T04:25:38.941Z,1.70
2019-01-29T04:28:18.664Z,1.60
2019-01-29T04:31:06.960Z,3.03
2019-01-29T04:33:36.140Z,3.23
2019-01-29T04:36:24.506Z,3.53
2019-01-29T04:39:05.951Z,3.10
2019-01-29T04:41:47.227Z,3.40
2019-01-29T04:44:28.523Z,3.10
2019-01-29T04:47:09.209Z,3.17
2019-01-29T04:49:49.905Z,3.90
2019-01-29T04:52:30.519Z,3.60
2019-01-29T04:55:11.156Z,3.90
2019-01-29T04:57:52.450Z,3.40
2019-01-29T05:00:33.751Z,4.37
2019-01-29T05:03:14.925Z,3.80
2019-01-29T05:05:55.572Z,3.83
2019-01-29T05:08:36.427Z,3.90
2019-01-29T05:11:17.578Z,3.77
2019-01-29T05:13:58.930Z,3.63
2019-01-29T05:19:38.236Z,3.03
2019-01-29T05:22:19.110Z,3.27
2019-01-29T05:25:00.637Z,3.53
2019-01-29T05:27:41.812Z,3.13
2019-01-29T05:30:23.091Z,3.27
2019-01-29T05:33:04.689Z,3.03
2019-01-29T05:35:45.734Z,2.97
2019-01-29T05:38:26.739Z,3.30
2019-01-29T05:41:08.036Z,3.60
2019-01-29T05:43:49.098Z,3.83
2019-01-29T05:46:30.376Z,2.63
2019-01-29T05:48:59.701Z,5.10
2019-01-29T05:51:48.027Z,5.77
2019-01-29T05:54:36.399Z,6.07
2019-01-29T05:57:17.611Z,6.20
2019-01-29T05:59:58.889Z,5.73
2019-01-29T06:02:39.579Z,5.50
2019-01-29T06:05:20.661Z,5.60
2019-01-29T06:08:01.989Z,5.73
2019-01-29T06:10:42.538Z,5.53
2019-01-29T06:13:23.698Z,5.93
2019-01-29T06:16:04.294Z,6.00
2019-01-29T06:18:33.437Z,6.13
2019-01-29T06:21:21.839Z,5.93
2019-01-29T06:24:02.447Z,6.07
2019-01-29T06:26:43.002Z,6.37
2019-01-29T06:29:24.488Z,6.97
2019-01-29T06:32:05.474Z,7.70
2019-01-29T06:34:46.604Z,7.60
2019-01-29T06:37:27.728Z,8.37
2019-01-29T06:40:09.076Z,8.20
2019-01-29T06:42:51.120Z,9.10
2019-01-29T06:45:32.018Z,8.30
2019-01-29T06:48:12.579Z,9.13
2019-01-29T06:50:53.994Z,8.47
2019-01-29T06:53:35.453Z,7.57
2019-01-29T06:56:16.496Z,7.80
2019-01-29T06:58:57.567Z,10.90
2019-01-29T07:01:37.128Z,10.73
2019-01-29T07:04:06.349Z,9.47
2019-01-29T07:06:35.477Z,10.10
2019-01-29T07:12:18.664Z,8.63
2019-01-29T07:14:59.418Z,7.60
2019-01-29T07:17:44.423Z,7.20
2019-01-29T07:20:25.048Z,7.80
2019-01-29T07:23:05.974Z,6.63
2019-01-29T07:25:46.953Z,6.37
2019-01-29T07:28:28.090Z,5.73
2019-01-29T07:31:09.357Z,6.33
2019-01-29T07:33:49.943Z,6.07
2019-01-29T07:36:31.367Z,5.53
2019-01-29T07:39:12.208Z,5.03
2019-01-29T07:41:41.364Z,5.60
2019-01-29T07:44:29.773Z,6.40
2019-01-29T07:47:18.155Z,6.70
2019-01-29T07:49:59.608Z,6.50
2019-01-29T07:52:41.080Z,6.13
2019-01-29T07:55:21.690Z,6.60
2019-01-29T07:58:02.779Z,6.03
2019-01-29T08:00:43.734Z,5.30
2019-01-29T08:03:24.998Z,6.43
2019-01-29T08:06:06.419Z,5.93
2019-01-29T08:08:47.899Z,4.80
2019-01-29T08:11:29.308Z,5.33
2019-01-29T08:14:10.551Z,5.37
2019-01-29T08:16:51.219Z,5.73
2019-01-29T08:19:32.306Z,6.40
2019-01-29T08:22:13.296Z,5.73
2019-01-29T08:25:01.839Z,6.27
2019-01-29T08:27:36.875Z,6.57
2019-01-29T08:30:06.461Z,6.00
2019-01-29T08:32:54.897Z,5.93
2019-01-29T08:35:36.002Z,5.90
2019-01-29T08:38:17.297Z,6.60
2019-01-29T08:40:58.394Z,6.13
2019-01-29T08:43:39.740Z,6.43
2019-01-29T08:46:20.369Z,6.37
2019-01-29T08:49:00.875Z,6.27
2019-01-29T08:51:42.234Z,6.17
2019-01-29T08:54:23.465Z,6.00
2019-01-29T08:57:04.759Z,5.63
2019-01-29T08:59:45.792Z,5.77
2019-01-29T09:02:27.068Z,5.60
2019-01-29T09:05:07.842Z,6.13
2019-01-29T09:07:48.486Z,5.53
2019-01-29T09:10:29.417Z,6.10
2019-01-29T09:13:10.468Z,6.73
2019-01-29T09:15:51.708Z,5.67
2019-01-29T09:18:34.002Z,5.90
2019-01-29T09:21:16.210Z,5.40
2019-01-29T09:23:56.963Z,5.43
2019-01-29T09:26:37.607Z,4.93
2019-01-29T09:29:20.969Z,5.13
2019-01-29T09:32:01.220Z,5.70
2019-01-29T09:34:41.893Z,6.50
2019-01-29T09:37:23.165Z,5.50
2019-01-29T09:40:04.634Z,5.00
2019-01-29T09:42:45.674Z,5.20
2019-01-29T09:45:27.107Z,5.33
2019-01-29T09:48:10.230Z,4.60
2019-01-29T09:50:51.435Z,4.70
2019-01-29T09:53:32.563Z,4.83
2019-01-29T09:56:13.028Z,5.07
2019-01-29T09:58:53.656Z,5.10
2019-01-29T10:01:34.834Z,5.60
2019-01-29T10:04:15.534Z,4.83
2019-01-29T10:06:56.498Z,5.30
2019-01-29T10:09:37.046Z,6.07
2019-01-29T10:12:06.794Z,5.67
2019-01-29T10:14:55.069Z,6.80
2019-01-29T10:17:36.343Z,6.40
2019-01-29T10:20:17.168Z,7.40
2019-01-29T10:22:58.571Z,6.30
2019-01-29T10:25:39.884Z,7.00
2019-01-29T10:28:20.483Z,6.80
2019-01-29T10:31:02.025Z,6.50
2019-01-29T10:33:43.614Z,6.17
2019-01-29T10:36:24.943Z,7.10
2019-01-29T10:39:08.201Z,6.77
2019-01-29T10:41:49.435Z,6.87
2019-01-29T10:44:30.031Z,6.43
2019-01-29T10:47:11.437Z,5.87
2019-01-29T10:49:52.904Z,5.50
2019-01-29T10:52:33.833Z,5.70
2019-01-29T10:55:14.502Z,5.57
2019-01-29T10:57:55.671Z,6.17
2019-01-29T11:00:36.879Z,5.53
2019-01-29T11:06:08.111Z,5.40
2019-01-29T11:08:56.643Z,5.67
2019-01-29T11:11:57.506Z,5.50
2019-01-29T11:14:28.908Z,5.87
2019-01-29T11:17:10.418Z,5.87
2019-01-29T11:19:51.692Z,5.37
2019-01-29T11:22:32.539Z,5.23
2019-01-29T11:25:13.993Z,5.60
2019-01-29T11:27:54.611Z,4.57
2019-01-29T11:30:35.282Z,5.43
2019-01-29T11:33:16.246Z,4.97
2019-01-29T11:35:45.482Z,6.10
2019-01-29T11:38:33.876Z,5.13
2019-01-29T11:41:24.537Z,5.20
2019-01-29T11:44:05.406Z,4.90
2019-01-29T11:46:46.144Z,5.40
2019-01-29T11:49:27.911Z,4.93
2019-01-29T11:52:08.985Z,5.47
2019-01-29T11:54:52.023Z,5.77
2019-01-29T11:57:33.537Z,5.60
2019-01-29T12:00:16.325Z,4.47
2019-01-29T12:02:57.070Z,4.80
2019-01-29T12:05:38.373Z,5.63
2019-01-29T12:08:20.011Z,5.33
2019-01-29T12:11:01.755Z,5.30
2019-01-29T12:13:51.757Z,5.40
2019-01-29T12:16:32.396Z,5.10
2019-01-29T12:19:13.692Z,4.77
2019-01-29T12:21:54.946Z,5.57
2019-01-29T12:24:36.372Z,4.83
2019-01-29T12:27:17.602Z,5.07
2019-01-29T12:29:58.320Z,4.73
2019-01-29T12:32:39.542Z,5.17
2019-01-29T12:35:20.498Z,5.47
2019-01-29T12:38:01.986Z,4.93
2019-01-29T12:40:43.124Z,5.63
2019-01-29T12:43:24.400Z,4.93
2019-01-29T12:46:05.689Z,4.97
2019-01-29T12:48:47.100Z,4.63
2019-01-29T12:51:53.032Z,3.97
2019-01-29T12:54:34.052Z,3.80
2019-01-29T12:57:15.633Z,4.00
2019-01-29T12:59:56.682Z,4.53
2019-01-29T13:02:37.790Z,4.23
2019-01-29T13:05:19.069Z,4.50
2019-01-29T13:08:00.503Z,4.20
2019-01-29T13:10:41.763Z,3.73
2019-01-29T13:13:23.025Z,4.30
2019-01-29T13:16:03.709Z,3.43
2019-01-29T13:18:45.017Z,3.87
2019-01-29T13:21:26.344Z,4.03
2019-01-29T13:24:07.723Z,4.70
2019-01-29T13:26:49.244Z,4.47
2019-01-29T13:29:30.220Z,4.10
2019-01-29T13:32:13.393Z,2.27
2019-01-29T13:34:53.844Z,4.43
2019-01-29T13:37:35.344Z,4.63
2019-01-29T13:40:16.664Z,5.47
2019-01-29T13:42:57.638Z,4.43
2019-01-29T13:45:39.176Z,4.37
2019-01-29T13:48:20.364Z,4.33
2019-01-29T13:51:01.702Z,4.60
2019-01-29T13:53:43.095Z,5.50
2019-01-29T13:56:38.802Z,5.43
2019-01-29T13:59:21.681Z,5.03
2019-01-29T14:02:02.332Z,5.10
2019-01-29T14:04:43.461Z,5.33
2019-01-29T14:07:24.711Z,5.63
2019-01-29T14:10:05.945Z,5.23
2019-01-29T14:12:46.953Z,5.03
2019-01-29T14:15:47.061Z,5.20
2019-01-29T14:18:28.249Z,4.30
2019-01-29T14:21:09.145Z,4.53
2019-01-29T14:23:50.349Z,5.07
2019-01-29T14:26:29.923Z,5.03
2019-01-29T14:29:11.237Z,4.80
2019-01-29T14:31:47.845Z,4.77
2019-01-29T14:37:24.984Z,4.93
2019-01-29T14:43:15.921Z,3.00
2019-01-29T14:45:58.526Z,3.80
2019-01-29T14:48:39.202Z,4.60
2019-01-29T14:51:20.288Z,4.20
2019-01-29T14:54:01.257Z,4.23
2019-01-29T14:56:42.193Z,5.00
2019-01-29T14:59:22.820Z,4.67
2019-01-29T15:02:03.875Z,4.83
2019-01-29T15:04:44.588Z,4.70
2019-01-29T15:07:30.562Z,5.13
2019-01-29T15:10:08.195Z,4.83
2019-01-29T15:12:49.468Z,5.30
2019-01-29T15:15:30.641Z,5.20
2019-01-29T15:18:15.869Z,5.00
2019-01-29T15:20:57.429Z,4.67
2019-01-29T15:23:38.348Z,5.40
2019-01-29T15:26:19.533Z,5.20
2019-01-29T15:29:00.152Z,5.47
2019-01-29T15:31:41.233Z,5.07
2019-01-29T15:34:20.692Z,5.03
2019-01-29T15:37:01.443Z,4.60
2019-01-29T15:39:42.837Z,4.73
2019-01-29T15:42:23.326Z,4.80
2019-01-29T15:45:04.613Z,4.97
2019-01-29T15:47:45.818Z,4.80
2019-01-29T15:50:26.491Z,4.97
2019-01-29T15:53:08.181Z,4.90
2019-01-29T15:55:49.182Z,4.80
2019-01-29T15:58:29.753Z,5.30
2019-01-29T16:01:10.332Z,5.60
2019-01-29T16:03:53.162Z,5.10
2019-01-29T16:06:34.288Z,5.90
2019-01-29T16:09:15.746Z,5.80
2019-01-29T16:11:45.762Z,5.33
2019-01-29T16:14:33.654Z,5.47
2019-01-29T16:17:14.445Z,5.63
2019-01-29T16:19:55.065Z,5.60
2019-01-29T16:22:36.227Z,5.53
2019-01-29T16:25:25.518Z,4.87
2019-01-29T16:28:06.379Z,5.70
2019-01-29T16:34:03.917Z,5.67
2019-01-29T16:36:45.195Z,6.13
2019-01-29T16:39:26.527Z,6.07
2019-01-29T16:42:07.885Z,5.57
2019-01-29T16:44:49.117Z,5.43
2019-01-29T16:47:18.709Z,5.80
2019-01-29T16:50:07.302Z,5.43
2019-01-29T16:52:36.594Z,5.40
2019-01-29T16:55:25.073Z,5.73
2019-01-29T16:58:05.722Z,5.40
2019-01-29T17:00:47.261Z,4.83
2019-01-29T17:03:27.758Z,5.40
2019-01-29T17:06:07.179Z,5.17
2019-01-29T17:08:36.392Z,4.70
2019-01-29T17:11:24.753Z,5.20
2019-01-29T17:14:05.396Z,5.50
2019-01-29T17:16:45.986Z,5.53
2019-01-29T17:19:26.680Z,5.77
2019-01-29T17:22:08.160Z,6.07
2019-01-29T17:24:49.539Z,5.60
2019-01-29T17:27:30.351Z,6.07
2019-01-29T17:30:12.106Z,6.43
2019-01-29T17:32:53.447Z,6.27
2019-01-29T17:35:32.955Z,6.43
2019-01-29T17:41:11.188Z,7.10
2019-01-29T17:43:59.560Z,6.90
2019-01-29T17:46:42.001Z,6.87
2019-01-29T17:49:23.375Z,7.13
2019-01-29T17:52:04.009Z,7.03
2019-01-29T17:54:45.989Z,6.57
2019-01-29T17:57:27.130Z,6.77
2019-01-29T18:00:08.153Z,7.10
2019-01-29T18:02:49.313Z,6.93
2019-01-29T18:05:29.925Z,7.60
2019-01-29T18:08:11.292Z,7.53
2019-01-29T18:10:52.479Z,7.00
2019-01-29T18:13:33.779Z,7.37
2019-01-29T18:16:21.014Z,6.73
2019-01-29T18:18:57.501Z,6.10
2019-01-29T18:21:32.605Z,6.17
2019-01-29T18:24:21.027Z,5.57
2019-01-29T18:27:09.659Z,5.80
2019-01-29T18:32:53.910Z,5.40
2019-01-29T18:35:34.504Z,5.00
2019-01-29T18:38:15.225Z,4.97
2019-01-29T18:40:55.815Z,4.63
2019-01-29T18:43:37.134Z,4.40
2019-01-29T18:46:06.293Z,5.23
2019-01-29T18:48:54.583Z,4.93
2019-01-29T18:54:44.979Z,4.90
2019-01-29T18:57:34.626Z,5.80
2019-01-29T19:00:24.135Z,5.20
2019-01-29T19:03:12.615Z,4.73
2019-01-29T19:06:01.162Z,5.40
2019-01-29T19:08:42.046Z,6.10
2019-01-29T19:11:23.381Z,5.93
2019-01-29T19:13:54.947Z,5.20
2019-01-29T19:16:43.290Z,5.87
2019-01-29T19:19:33.434Z,5.40
2019-01-29T19:22:04.946Z,5.50
2019-01-29T19:24:53.388Z,6.43
2019-01-29T19:27:34.890Z,6.67
2019-01-29T19:33:33.151Z,5.07
2019-01-29T19:36:14.212Z,6.43
2019-01-29T19:38:57.000Z,7.07
2019-01-29T19:45:08.526Z,7.23
2019-01-29T19:47:37.262Z,7.47
2019-01-29T19:50:09.980Z,7.33
2019-01-29T19:52:59.235Z,7.70
2019-01-29T19:55:41.490Z,6.80
2019-01-29T19:58:31.734Z,7.77
2019-01-29T20:01:05.094Z,8.20
2019-01-29T20:03:45.661Z,8.00
2019-01-29T20:06:26.930Z,7.67
2019-01-29T20:09:09.562Z,8.90
2019-01-29T20:11:50.386Z,8.00
2019-01-29T20:14:31.879Z,7.77
2019-01-29T20:17:13.131Z,8.60
2019-01-29T20:19:54.281Z,8.00
2019-01-29T20:22:35.449Z,8.17
2019-01-29T20:25:16.492Z,8.73
2019-01-29T20:27:57.412Z,9.00
2019-01-29T20:30:38.306Z,9.17
2019-01-29T20:33:07.441Z,9.07
2019-01-29T20:35:37.071Z,8.67
2019-01-29T20:38:06.364Z,9.93
2019-01-29T20:40:56.953Z,9.33
2019-01-29T20:43:45.477Z,12.40
2019-01-29T20:46:26.179Z,12.40
2019-01-29T20:49:15.465Z,10.90
2019-01-29T20:52:05.922Z,9.07
2019-01-29T20:54:46.659Z,9.63
2019-01-29T20:57:27.823Z,9.70
2019-01-29T21:00:09.387Z,9.27
2019-01-29T21:02:38.831Z,9.70
2019-01-29T21:05:27.377Z,9.83
2019-01-29T21:08:08.777Z,9.90
2019-01-29T21:10:50.275Z,10.27
2019-01-29T21:13:31.319Z,10.90
2019-01-29T21:16:12.419Z,9.80
2019-01-29T21:18:53.792Z,10.57
2019-01-29T21:21:35.036Z,10.90
2019-01-29T21:24:16.343Z,9.97
2019-01-29T21:26:45.665Z,9.77
2019-01-29T21:29:34.350Z,10.10
2019-01-29T21:32:22.733Z,10.53
2019-01-29T21:35:04.159Z,10.13
2019-01-29T21:37:45.692Z,10.27
2019-01-29T21:40:26.900Z,9.77
2019-01-29T21:43:08.185Z,9.90
2019-01-29T21:45:49.536Z,10.23
2019-01-29T21:48:30.486Z,9.50
2019-01-29T21:51:11.878Z,10.00
2019-01-29T21:53:53.445Z,10.07
2019-01-29T21:56:34.425Z,9.93
2019-01-29T21:59:15.327Z,9.53
2019-01-29T22:01:56.094Z,9.43
2019-01-29T22:04:37.267Z,9.20
2019-01-29T22:07:06.686Z,9.60
2019-01-29T22:09:54.991Z,9.70
2019-01-29T22:12:35.700Z,9.57
2019-01-29T22:15:17.251Z,9.90
2019-01-29T22:17:58.606Z,9.47
2019-01-29T22:20:27.841Z,10.07
2019-01-29T22:22:58.521Z,9.40
2019-01-29T22:25:46.921Z,9.53
2019-01-29T22:31:34.998Z,9.83
2019-01-29T22:34:15.767Z,10.00
2019-01-29T22:36:56.318Z,9.80
2019-01-29T22:39:37.073Z,9.53
2019-01-29T22:42:06.344Z,10.63
2019-01-29T22:44:35.447Z,10.63
2019-01-29T22:47:23.752Z,9.70
2019-01-29T22:50:32.974Z,10.53
2019-01-29T22:53:13.846Z,10.83
2019-01-29T22:55:55.256Z,11.23
2019-01-29T22:58:36.270Z,10.77
2019-01-29T23:01:17.680Z,10.97
2019-01-29T23:03:59.162Z,10.37
2019-01-29T23:06:40.440Z,10.60
2019-01-29T23:09:21.204Z,10.47
2019-01-29T23:12:02.626Z,10.43
2019-01-29T23:14:43.684Z,10.20
2019-01-29T23:17:24.884Z,9.80
2019-01-29T23:20:05.582Z,9.90
2019-01-29T23:22:46.237Z,9.87
2019-01-29T23:25:27.255Z,10.00
2019-01-29T23:31:04.095Z,9.63
2019-01-29T23:33:44.897Z,9.47
2019-01-29T23:36:26.353Z,9.83
2019-01-29T23:39:07.617Z,9.43
2019-01-29T23:41:49.060Z,10.17
2019-01-29T23:44:18.253Z,9.97
2019-01-29T23:47:06.672Z,10.43
2019-01-29T23:49:55.043Z,9.93
2019-01-29T23:52:43.418Z,9.60
2019-01-29T23:55:31.722Z,10.10
2019-01-29T23:58:13.169Z,10.20
